Time;durP1;ratioP1;P1;durP2;ratioP2;P2;SDS_P1;SDS_P2;PMS_P1;PMS_P2;Temp;Humidity;BMP_temperature;BMP_pressure;BME280_temperature;BME280_humidity;BME280_pressure;Samples;Min_cycle;Max_cycle;Signal;HPM_P1;HPM_P2
2023/03/16 00:00:38;;;;;;;9.73;4.82;;;0.40;99.90;;;;;;5048861;28;20040;-65
2023/03/16 00:03:04;;;;;;;8.98;3.97;;;0.40;99.90;;;;;;5048763;28;20418;-64
2023/03/16 00:05:30;;;;;;;6.57;3.97;;;0.50;99.90;;;;;;5051206;28;20025;-66
2023/03/16 00:07:56;;;;;;;5.47;3.42;;;0.40;99.90;;;;;;5051182;28;20036;-65
2023/03/16 00:10:26;;;;;;;8.35;3.72;;;0.30;99.90;;;;;;5048105;28;20028;-65
2023/03/16 00:12:55;;;;;;;11.82;3.95;;;0.30;99.90;;;;;;5046944;28;20379;-66
2023/03/16 00:15:21;;;;;;;10.88;4.32;;;0.30;99.90;;;;;;5048688;28;20037;-66
2023/03/16 00:17:47;;;;;;;8.68;3.67;;;0.30;99.90;;;;;;5047022;28;20036;-65
2023/03/16 00:20:17;;;;;;;9.60;4.35;;;0.20;99.90;;;;;;5046671;28;20405;-65
2023/03/16 00:22:43;;;;;;;11.87;4.70;;;0.20;99.90;;;;;;5047837;28;20083;-65
2023/03/16 00:25:11;;;;;;;14.52;4.93;;;0.20;99.90;;;;;;5048235;28;20027;-66
2023/03/16 00:27:37;;;;;;;8.43;4.05;;;0.10;99.90;;;;;;5048200;28;20098;-65
2023/03/16 00:30:03;;;;;;;11.65;4.75;;;0.10;99.90;;;;;;5044347;28;20036;-66
2023/03/16 00:32:32;;;;;;;9.95;3.55;;;0.10;99.90;;;;;;5047826;28;20059;-65
2023/03/16 00:34:58;;;;;;;11.37;4.03;;;0.10;99.90;;;;;;5049573;28;20387;-65
2023/03/16 00:37:25;;;;;;;11.93;3.70;;;0.10;99.90;;;;;;5046102;28;20029;-65
2023/03/16 00:39:54;;;;;;;9.23;4.27;;;0.00;99.90;;;;;;5049081;28;20063;-64
2023/03/16 00:42:26;;;;;;;10.17;4.57;;;0.00;99.90;;;;;;5040659;28;20194;-66
2023/03/16 00:44:56;;;;;;;9.93;4.25;;;0.00;99.90;;;;;;5042183;28;20032;-65
2023/03/16 00:47:23;;;;;;;7.63;4.13;;;-0.10;99.90;;;;;;5044989;28;20080;-66
2023/03/16 00:49:49;;;;;;;13.77;5.25;;;0.00;99.90;;;;;;5046000;28;20037;-66
2023/03/16 00:52:15;;;;;;;9.63;4.47;;;0.10;99.90;;;;;;5048467;28;20672;-64
2023/03/16 00:54:46;;;;;;;15.00;4.20;;;0.20;99.90;;;;;;5031317;28;20127;-65
2023/03/16 00:57:20;;;;;;;10.23;4.50;;;0.30;99.90;;;;;;5046445;28;20041;-66
2023/03/16 00:59:46;;;;;;;;;;;0.30;99.90;;;;;;5047403;28;20448;-65
2023/03/16 01:02:13;;;;;;;10.73;3.40;;;0.30;99.90;;;;;;5043239;28;19913;-65
2023/03/16 01:04:40;;;;;;;8.90;3.88;;;0.30;99.90;;;;;;5045564;28;20025;-64
2023/03/16 01:07:07;;;;;;;13.68;4.03;;;0.30;99.90;;;;;;5044716;28;20032;-65
2023/03/16 01:09:35;;;;;;;10.15;3.50;;;0.40;99.90;;;;;;5047383;28;20490;-66
2023/03/16 01:12:05;;;;;;;10.10;4.13;;;0.40;99.90;;;;;;5046161;28;20037;-65
2023/03/16 01:14:31;;;;;;;8.45;4.03;;;0.40;99.90;;;;;;5048275;28;20033;-65
2023/03/16 01:16:57;;;;;;;10.90;4.33;;;0.30;99.90;;;;;;5039694;28;20056;-66
2023/03/16 01:19:22;;;;;;;7.28;3.60;;;0.40;99.90;;;;;;5041889;28;20072;-66
2023/03/16 01:21:48;;;;;;;6.97;4.03;;;0.40;99.90;;;;;;5039054;28;20044;-66
2023/03/16 01:24:13;;;;;;;11.73;3.75;;;0.40;99.90;;;;;;5039011;28;20114;-66
2023/03/16 01:26:39;;;;;;;11.50;4.22;;;0.50;99.90;;;;;;5041233;28;20059;-66
2023/03/16 01:29:04;;;;;;;7.60;3.70;;;0.50;99.90;;;;;;5040759;28;20512;-66
2023/03/16 01:31:30;;;;;;;7.75;2.97;;;0.60;99.90;;;;;;5045509;28;20041;-66
2023/03/16 01:33:56;;;;;;;11.98;4.40;;;0.60;99.90;;;;;;5024698;28;20029;-66
2023/03/16 01:36:22;;;;;;;12.48;4.18;;;0.70;99.90;;;;;;5043476;28;20033;-66
2023/03/16 01:38:48;;;;;;;12.05;4.05;;;0.70;99.90;;;;;;5046416;28;20036;-65
2023/03/16 01:41:14;;;;;;;8.27;3.55;;;0.80;99.90;;;;;;5045550;28;20040;-65
2023/03/16 01:43:41;;;;;;;8.00;3.65;;;0.80;99.90;;;;;;5047634;28;20032;-66
2023/03/16 01:46:06;;;;;;;8.93;2.72;;;0.90;99.90;;;;;;5047342;28;20037;-65
2023/03/16 01:48:36;;;;;;;7.50;3.40;;;0.90;99.90;;;;;;5050231;28;20044;-65
2023/03/16 01:51:10;;;;;;;6.97;2.78;;;0.90;99.90;;;;;;5051759;28;20143;-65
2023/03/16 01:53:39;;;;;;;11.23;3.38;;;1.00;99.90;;;;;;5046334;28;20444;-66
2023/03/16 01:56:08;;;;;;;7.18;2.88;;;1.00;99.90;;;;;;5048898;28;20546;-65
2023/03/16 01:58:35;;;;;;;8.55;2.42;;;1.10;99.90;;;;;;5026229;28;20053;-64
2023/03/16 02:01:02;;;;;;;5.65;3.05;;;1.10;99.90;;;;;;5045291;28;20064;-66
2023/03/16 02:03:28;;;;;;;9.50;3.80;;;1.20;99.90;;;;;;5045193;28;20433;-66
2023/03/16 02:06:02;;;;;;;5.07;2.72;;;1.20;99.90;;;;;;5049951;28;20478;-65
2023/03/16 02:08:28;;;;;;;5.32;2.80;;;1.20;99.90;;;;;;5049353;28;20025;-66
2023/03/16 02:10:55;;;;;;;10.15;3.42;;;1.20;99.90;;;;;;5046693;28;20039;-66
2023/03/16 02:13:23;;;;;;;6.55;2.88;;;1.30;99.90;;;;;;5050520;28;20025;-66
2023/03/16 02:15:50;;;;;;;8.70;3.03;;;1.20;99.90;;;;;;5047157;28;20117;-66
2023/03/16 02:18:17;;;;;;;7.93;2.83;;;1.20;99.90;;;;;;5044527;28;20133;-66
2023/03/16 02:20:55;;;;;;;9.05;3.10;;;1.10;99.90;;;;;;5044690;28;20490;-66
2023/03/16 02:23:23;;;;;;;5.00;2.55;;;1.10;99.90;;;;;;5047341;28;20033;-65
2023/03/16 02:26:11;;;;;;;4.35;2.28;;;1.00;99.90;;;;;;5048980;28;20029;-66
2023/03/16 02:29:09;;;;;;;5.38;2.70;;;1.00;99.90;;;;;;5043860;28;20379;-65
2023/03/16 02:31:34;;;;;;;5.85;3.20;;;1.00;99.90;;;;;;5040721;28;20049;-66
2023/03/16 02:34:00;;;;;;;5.18;2.35;;;1.00;99.90;;;;;;5047223;28;20033;-66
2023/03/16 02:36:27;;;;;;;5.35;2.78;;;1.00;99.90;;;;;;5046822;28;20029;-66
2023/03/16 02:38:53;;;;;;;6.47;2.50;;;0.90;99.90;;;;;;5046405;28;20445;-65
2023/03/16 02:41:20;;;;;;;6.78;3.17;;;1.00;99.90;;;;;;5050212;28;20035;-66
2023/03/16 02:44:13;;;;;;;5.90;2.75;;;0.90;99.90;;;;;;5044238;28;20132;-65
2023/03/16 02:46:42;;;;;;;6.28;2.25;;;0.90;99.90;;;;;;5043224;28;20041;-66
2023/03/16 02:49:23;;;;;;;4.68;2.63;;;1.00;99.90;;;;;;5046610;28;20025;-64
2023/03/16 02:51:49;;;;;;;6.40;2.50;;;0.90;99.90;;;;;;5048269;28;20466;-66
2023/03/16 02:54:15;;;;;;;5.65;2.45;;;0.90;99.90;;;;;;5049924;28;20033;-65
2023/03/16 02:56:41;;;;;;;5.97;2.38;;;0.90;99.90;;;;;;5050103;28;20048;-65
2023/03/16 02:59:06;;;;;;;12.00;2.75;;;1.00;99.90;;;;;;5025431;28;20418;-65
2023/03/16 03:01:33;;;;;;;3.72;2.33;;;0.90;99.90;;;;;;5042674;28;20029;-65
2023/03/16 03:04:00;;;;;;;7.80;2.60;;;0.90;99.90;;;;;;5046498;28;20024;-66
2023/03/16 03:06:26;;;;;;;5.65;2.45;;;0.90;99.90;;;;;;5043933;28;20044;-66
2023/03/16 03:08:51;;;;;;;4.47;2.33;;;0.90;99.90;;;;;;5043211;28;20163;-66
2023/03/16 03:11:18;;;;;;;5.03;2.53;;;0.90;99.90;;;;;;5047280;28;20111;-65
2023/03/16 03:13:45;;;;;;;5.22;2.58;;;0.90;99.90;;;;;;5046911;28;20033;-66
2023/03/16 03:16:11;;;;;;;10.35;2.70;;;0.90;99.90;;;;;;5047229;28;20079;-66
2023/03/16 03:18:37;;;;;;;7.32;3.85;;;1.00;99.90;;;;;;5047762;28;20037;-65
2023/03/16 03:21:02;;;;;;;8.82;2.35;;;1.00;99.90;;;;;;5048957;28;20397;-67
2023/03/16 03:23:28;;;;;;;3.83;2.00;;;1.10;99.90;;;;;;5045111;28;20029;-66
2023/03/16 03:25:58;;;;;;;4.82;2.28;;;1.10;99.90;;;;;;5046917;28;20037;-65
2023/03/16 03:28:23;;;;;;;3.50;2.05;;;1.10;99.90;;;;;;5047345;28;20521;-65
2023/03/16 03:30:50;;;;;;;8.05;2.13;;;1.20;99.90;;;;;;5047363;28;20033;-65
2023/03/16 03:33:16;;;;;;;5.35;2.45;;;1.20;99.90;;;;;;5047135;28;20452;-67
2023/03/16 03:35:41;;;;;;;6.40;2.40;;;1.20;99.90;;;;;;5049650;28;20025;-67
2023/03/16 03:38:07;;;;;;;5.38;2.30;;;1.30;99.90;;;;;;5044648;28;20032;-65
2023/03/16 03:40:33;;;;;;;6.85;2.58;;;1.30;99.90;;;;;;5044628;28;20052;-65
2023/03/16 03:43:00;;;;;;;7.53;2.63;;;1.30;99.90;;;;;;5042131;28;20029;-65
2023/03/16 03:45:26;;;;;;;4.82;1.92;;;1.30;99.90;;;;;;5044869;28;20017;-67
2023/03/16 03:47:53;;;;;;;5.03;2.00;;;1.30;99.90;;;;;;5048667;28;20025;-65
2023/03/16 03:50:19;;;;;;;11.45;2.83;;;1.40;99.90;;;;;;5045681;28;20025;-66
2023/03/16 03:52:45;;;;;;;5.90;2.20;;;1.30;99.90;;;;;;5045557;28;20043;-65
2023/03/16 03:55:11;;;;;;;9.82;2.80;;;1.30;99.90;;;;;;5048176;28;20036;-66
2023/03/16 03:57:37;;;;;;;7.43;2.70;;;1.20;99.90;;;;;;5032099;28;20087;-66
2023/03/16 04:00:10;;;;;;;7.85;2.58;;;1.20;99.90;;;;;;5047944;28;20312;-65
2023/03/16 04:02:36;;;;;;;5.30;2.28;;;1.20;99.90;;;;;;5047616;28;20497;-65
2023/03/16 04:05:01;;;;;;;7.32;2.55;;;1.30;99.90;;;;;;5049911;28;20040;-66
2023/03/16 04:07:27;;;;;;;7.82;2.15;;;1.30;99.90;;;;;;5050640;28;20041;-66
2023/03/16 04:09:52;;;;;;;3.65;1.85;;;1.30;99.90;;;;;;5048833;28;20033;-66
2023/03/16 04:12:18;;;;;;;5.25;2.53;;;1.30;99.90;;;;;;5047646;28;20029;-65
2023/03/16 04:14:44;;;;;;;7.22;2.83;;;1.30;99.90;;;;;;5048019;28;20406;-65
2023/03/16 04:17:11;;;;;;;9.82;2.95;;;1.30;99.90;;;;;;5046792;28;20037;-65
2023/03/16 04:19:36;;;;;;;5.57;2.67;;;1.30;99.90;;;;;;5048530;28;20107;-66
2023/03/16 04:22:02;;;;;;;7.75;3.03;;;1.30;99.90;;;;;;5047332;28;20116;-65
2023/03/16 04:24:28;;;;;;;4.20;2.50;;;1.40;99.90;;;;;;5045002;28;20029;-65
2023/03/16 04:26:53;;;;;;;7.57;2.60;;;1.40;99.90;;;;;;5049364;28;20482;-66
2023/03/16 04:29:19;;;;;;;6.18;2.78;;;1.50;99.90;;;;;;5045785;28;20033;-65
2023/03/16 04:31:45;;;;;;;9.55;2.70;;;1.50;99.90;;;;;;5046373;28;20398;-65
2023/03/16 04:34:12;;;;;;;7.50;2.85;;;1.50;99.90;;;;;;5049508;28;20422;-64
2023/03/16 04:36:38;;;;;;;8.80;3.05;;;1.40;99.90;;;;;;5047257;28;20044;-64
2023/03/16 04:39:05;;;;;;;6.55;2.83;;;1.40;99.90;;;;;;5044515;28;20029;-66
2023/03/16 04:41:31;;;;;;;6.72;3.00;;;1.30;99.90;;;;;;5048982;28;20029;-66
2023/03/16 04:43:57;;;;;;;6.75;3.35;;;1.30;99.90;;;;;;5042920;28;20478;-65
2023/03/16 04:46:25;;;;;;;9.77;2.88;;;1.20;99.90;;;;;;5046226;28;20504;-66
2023/03/16 04:48:51;;;;;;;10.68;4.20;;;1.20;99.90;;;;;;5043788;28;20039;-66
2023/03/16 04:51:16;;;;;;;8.20;2.58;;;1.20;99.90;;;;;;5046319;28;20033;-65
2023/03/16 04:53:43;;;;;;;10.20;3.20;;;1.10;99.90;;;;;;5042730;28;20172;-65
2023/03/16 04:56:16;;;;;;;6.95;3.15;;;1.10;99.90;;;;;;5044275;28;20128;-67
2023/03/16 04:58:43;;;;;;;7.68;3.33;;;1.10;99.90;;;;;;5022658;28;20102;-66
2023/03/16 05:01:08;;;;;;;8.27;3.10;;;1.20;99.90;;;;;;5041939;28;20162;-65
2023/03/16 05:03:34;;;;;;;5.90;3.05;;;1.20;99.90;;;;;;5042559;28;20032;-66
2023/03/16 05:05:59;;;;;;;4.00;2.78;;;1.20;99.90;;;;;;5042599;28;20027;-65
2023/03/16 05:08:25;;;;;;;6.68;3.28;;;1.20;99.90;;;;;;5045079;28;20343;-66
2023/03/16 05:10:55;;;;;;;9.13;4.18;;;1.30;99.90;;;;;;5045319;28;20055;-65
2023/03/16 05:13:21;;;;;;;6.28;3.33;;;1.40;99.90;;;;;;5044418;28;20441;-65
2023/03/16 05:15:47;;;;;;;8.48;3.50;;;1.40;99.90;;;;;;5041560;28;20029;-66
2023/03/16 05:18:12;;;;;;;10.63;3.22;;;1.40;99.90;;;;;;5040715;28;20474;-65
2023/03/16 05:20:38;;;;;;;8.00;3.67;;;1.40;99.90;;;;;;5049201;28;20040;-66
2023/03/16 05:23:03;;;;;;;10.65;3.50;;;1.40;99.90;;;;;;5050792;28;20064;-66
2023/03/16 05:25:29;;;;;;;5.28;3.10;;;1.50;99.90;;;;;;5053704;28;20096;-66
2023/03/16 05:27:56;;;;;;;7.65;3.15;;;1.60;99.90;;;;;;5053890;28;20025;-65
2023/03/16 05:30:21;;;;;;;9.80;3.63;;;1.60;99.90;;;;;;5051826;28;20048;-64
2023/03/16 05:32:47;;;;;;;7.60;3.08;;;1.60;99.90;;;;;;5052733;28;20056;-66
2023/03/16 05:35:13;;;;;;;6.50;3.38;;;1.60;99.90;;;;;;5054858;28;20120;-66
2023/03/16 05:37:39;;;;;;;8.98;3.42;;;1.70;99.90;;;;;;5051748;28;20031;-66
2023/03/16 05:40:16;;;;;;;13.45;3.60;;;1.70;99.90;;;;;;5055160;28;20037;-65
2023/03/16 05:42:46;;;;;;;5.18;2.70;;;1.80;99.90;;;;;;5045966;28;20107;-66
2023/03/16 05:45:14;;;;;;;8.63;3.63;;;1.80;99.90;;;;;;5053219;28;20032;-65
2023/03/16 05:47:40;;;;;;;9.25;3.67;;;1.90;99.90;;;;;;5055492;28;20072;-66
2023/03/16 05:50:10;;;;;;;6.93;3.28;;;1.90;99.90;;;;;;5052506;28;20100;-66
2023/03/16 05:52:39;;;;;;;5.22;2.92;;;2.00;99.90;;;;;;5050402;28;20025;-66
2023/03/16 05:55:06;;;;;;;8.88;3.40;;;2.00;99.90;;;;;;5054073;28;20044;-66
2023/03/16 05:57:33;;;;;;;7.57;3.47;;;2.10;99.90;;;;;;5038588;28;21663;-66
2023/03/16 06:00:00;;;;;;;7.15;3.55;;;2.10;99.90;;;;;;5048777;28;20029;-65
2023/03/16 06:02:26;;;;;;;11.10;4.50;;;2.10;99.90;;;;;;5055674;28;20052;-66
2023/03/16 06:04:52;;;;;;;8.10;3.67;;;2.10;99.90;;;;;;5056070;28;20029;-65
2023/03/16 06:07:18;;;;;;;5.53;3.47;;;2.20;99.90;;;;;;5055314;28;20036;-65
2023/03/16 06:09:43;;;;;;;9.07;3.60;;;2.30;99.90;;;;;;5056604;28;20032;-65
2023/03/16 06:12:09;;;;;;;6.22;3.33;;;2.30;99.90;;;;;;5054841;28;20033;-66
2023/03/16 06:14:35;;;;;;;6.75;3.22;;;2.40;99.90;;;;;;5053868;28;20044;-66
2023/03/16 06:17:01;;;;;;;6.93;3.08;;;2.40;99.90;;;;;;5056303;28;20036;-66
2023/03/16 06:19:27;;;;;;;7.28;3.30;;;2.40;99.90;;;;;;5053761;28;20041;-65
2023/03/16 06:21:52;;;;;;;10.15;3.65;;;2.50;99.90;;;;;;5055686;28;20040;-66
2023/03/16 06:24:18;;;;;;;10.05;3.33;;;2.50;99.90;;;;;;5055971;28;20025;-63
2023/03/16 06:26:43;;;;;;;6.80;3.17;;;2.60;99.90;;;;;;5045013;28;20021;-66
2023/03/16 06:29:09;;;;;;;9.45;3.50;;;2.60;99.90;;;;;;5048047;28;20036;-65
2023/03/16 06:31:35;;;;;;;7.80;3.60;;;2.70;99.90;;;;;;5052890;28;20477;-66
2023/03/16 06:34:00;;;;;;;9.98;3.50;;;2.70;99.90;;;;;;5050469;28;20024;-66
2023/03/16 06:36:26;;;;;;;12.23;4.05;;;2.80;99.90;;;;;;5050026;28;20170;-66
2023/03/16 06:38:52;;;;;;;5.28;3.10;;;2.90;99.90;;;;;;5050866;28;20044;-66
2023/03/16 06:41:18;;;;;;;7.05;3.72;;;2.90;99.90;;;;;;5051416;28;20029;-66
2023/03/16 06:43:43;;;;;;;7.75;3.95;;;3.00;99.90;;;;;;5043211;28;20033;-66
2023/03/16 06:46:09;;;;;;;5.05;2.95;;;3.10;99.90;;;;;;5051521;28;20596;-66
2023/03/16 06:48:35;;;;;;;8.45;4.03;;;3.20;99.90;;;;;;5050549;28;20106;-66
2023/03/16 06:51:01;;;;;;;7.82;3.90;;;3.30;99.90;;;;;;5050805;28;20104;-66
2023/03/16 06:53:26;;;;;;;11.45;6.15;;;3.50;99.90;;;;;;5046039;28;20132;-67
2023/03/16 06:55:52;;;;;;;7.43;3.67;;;3.60;99.90;;;;;;5049756;28;20044;-66
2023/03/16 06:58:18;;;;;;;8.18;3.70;;;3.60;99.90;;;;;;5031706;28;20041;-66
2023/03/16 07:00:43;;;;;;;7.85;3.85;;;3.70;99.90;;;;;;5050239;28;20585;-67
2023/03/16 07:03:09;;;;;;;10.68;3.85;;;3.70;99.90;;;;;;5051164;28;20036;-67
2023/03/16 07:05:34;;;;;;;6.97;3.55;;;3.70;99.90;;;;;;5049849;28;20465;-66
2023/03/16 07:08:00;;;;;;;5.57;3.70;;;3.70;99.90;;;;;;5048964;28;20033;-66
2023/03/16 07:10:26;;;;;;;8.05;3.50;;;3.80;99.90;;;;;;5051906;28;20024;-66
2023/03/16 07:12:51;;;;;;;10.40;4.35;;;3.90;99.90;;;;;;5051163;28;20037;-66
2023/03/16 07:15:17;;;;;;;7.80;3.75;;;4.00;99.90;;;;;;5048256;28;20052;-66
2023/03/16 07:17:43;;;;;;;7.65;3.70;;;4.10;99.90;;;;;;5052188;28;20071;-67
2023/03/16 07:20:10;;;;;;;6.82;3.40;;;4.20;99.90;;;;;;5051516;28;20112;-67
2023/03/16 07:22:36;;;;;;;7.78;4.20;;;4.20;99.90;;;;;;5063980;28;20029;-66
2023/03/16 07:25:02;;;;;;;13.77;3.92;;;4.20;99.90;;;;;;5050953;28;20035;-66
2023/03/16 07:27:28;;;;;;;7.90;3.97;;;4.30;99.90;;;;;;5051139;28;20032;-67
2023/03/16 07:29:54;;;;;;;7.90;3.95;;;4.40;99.90;;;;;;5047669;28;20406;-67
2023/03/16 07:32:20;;;;;;;10.35;4.40;;;4.60;99.90;;;;;;5051273;28;20040;-65
2023/03/16 07:34:46;;;;;;;8.65;4.03;;;4.60;99.90;;;;;;5051782;28;20021;-66
2023/03/16 07:37:12;;;;;;;6.43;3.92;;;4.60;99.90;;;;;;5049716;28;20032;-66
2023/03/16 07:39:38;;;;;;;8.85;4.07;;;4.70;99.90;;;;;;5051838;28;20040;-66
2023/03/16 07:42:03;;;;;;;8.68;4.63;;;4.80;99.90;;;;;;5047028;28;20029;-66
2023/03/16 07:44:30;;;;;;;6.13;3.60;;;4.90;99.90;;;;;;5045608;28;20036;-66
2023/03/16 07:46:56;;;;;;;8.35;3.85;;;5.10;99.90;;;;;;5049126;28;20037;-66
2023/03/16 07:49:22;;;;;;;7.03;3.78;;;5.10;99.90;;;;;;5044334;28;20032;-66
2023/03/16 07:51:47;;;;;;;7.65;3.50;;;5.00;99.90;;;;;;5051970;28;20033;-67
2023/03/16 07:54:13;;;;;;;5.63;3.50;;;5.00;99.90;;;;;;5047121;28;20033;-67
2023/03/16 07:56:39;;;;;;;7.10;3.78;;;5.10;99.90;;;;;;5049517;28;20061;-66
2023/03/16 07:59:04;;;;;;;15.32;4.30;;;5.40;99.90;;;;;;5030002;28;21355;-67
2023/03/16 08:01:30;;;;;;;6.68;4.20;;;5.60;99.90;;;;;;5047220;28;20057;-67
2023/03/16 08:03:56;;;;;;;8.35;4.05;;;5.80;99.90;;;;;;5044000;28;20032;-66
2023/03/16 08:06:24;;;;;;;7.00;3.70;;;6.00;99.90;;;;;;5050521;28;20031;-66
2023/03/16 08:08:50;;;;;;;8.27;4.45;;;6.20;99.90;;;;;;5045334;28;20033;-66
2023/03/16 08:11:22;;;;;;;8.20;4.13;;;6.40;99.90;;;;;;5048803;28;20567;-66
2023/03/16 08:13:52;;;;;;;6.45;3.50;;;6.40;99.90;;;;;;5043818;28;20460;-66
2023/03/16 08:16:22;;;;;;;9.52;4.68;;;6.50;99.90;;;;;;5049316;28;20039;-66
2023/03/16 08:18:49;;;;;;;7.43;3.45;;;6.80;99.90;;;;;;5045043;28;20537;-67
2023/03/16 08:21:15;;;;;;;9.70;4.40;;;6.90;99.90;;;;;;5050131;28;20575;-67
2023/03/16 08:23:47;;;;;;;7.82;4.75;;;6.90;99.90;;;;;;5048966;28;20013;-66
2023/03/16 08:26:16;;;;;;;11.55;4.97;;;6.80;99.90;;;;;;5051015;28;20017;-67
2023/03/16 08:28:44;;;;;;;8.85;4.65;;;6.80;99.90;;;;;;5048832;28;20486;-67
2023/03/16 08:31:11;;;;;;;10.35;5.78;;;6.70;99.90;;;;;;5044826;28;20544;-67
2023/03/16 08:33:37;;;;;;;9.27;4.32;;;6.60;99.90;;;;;;5045833;28;20021;-67
2023/03/16 08:36:09;;;;;;;10.73;4.78;;;6.70;99.90;;;;;;5049625;28;20021;-66
2023/03/16 08:38:34;;;;;;;10.07;5.10;;;6.90;99.90;;;;;;5047591;28;20059;-67
2023/03/16 08:41:00;;;;;;;8.93;5.70;;;7.00;99.90;;;;;;5050045;28;20029;-66
2023/03/16 08:43:27;;;;;;;12.27;5.53;;;7.20;99.90;;;;;;5050452;28;20021;-66
2023/03/16 08:45:52;;;;;;;9.65;5.25;;;7.40;99.90;;;;;;5038902;28;20060;-67
2023/03/16 08:48:19;;;;;;;10.07;5.28;;;7.50;99.90;;;;;;5047348;28;20063;-67
2023/03/16 08:50:45;;;;;;;12.05;4.97;;;7.60;99.90;;;;;;5048179;28;20043;-66
2023/03/16 08:53:12;;;;;;;9.35;5.63;;;7.60;99.90;;;;;;5048079;28;20033;-67
2023/03/16 08:55:40;;;;;;;9.30;4.78;;;7.70;99.90;;;;;;5047575;28;20029;-67
2023/03/16 08:58:06;;;;;;;10.80;5.63;;;7.50;99.90;;;;;;5044600;28;20505;-66
2023/03/16 09:00:32;;;;;;;8.40;5.30;;;7.70;99.90;;;;;;5032005;28;20057;-67
2023/03/16 09:02:59;;;;;;;11.88;5.53;;;7.90;99.90;;;;;;5046691;28;20516;-67
2023/03/16 09:05:25;;;;;;;10.65;5.82;;;8.00;99.90;;;;;;5043583;28;20071;-67
2023/03/16 09:07:52;;;;;;;14.23;5.63;;;8.00;99.90;;;;;;5049619;28;20486;-66
2023/03/16 09:10:21;;;;;;;10.73;5.65;;;8.10;99.90;;;;;;5050744;28;20020;-66
2023/03/16 09:12:48;;;;;;;8.25;5.05;;;8.00;99.90;;;;;;5047056;28;20024;-67
2023/03/16 09:15:14;;;;;;;8.68;5.53;;;7.80;99.90;;;;;;5048207;28;20049;-67
2023/03/16 09:17:44;;;;;;;11.05;5.30;;;7.90;99.90;;;;;;5048960;28;20052;-67
2023/03/16 09:20:11;;;;;;;7.38;4.75;;;8.00;99.90;;;;;;5048156;28;20406;-67
2023/03/16 09:22:37;;;;;;;10.13;5.60;;;8.10;99.90;;;;;;5050588;28;20099;-67
2023/03/16 09:25:07;;;;;;;9.15;5.28;;;8.20;99.90;;;;;;5043279;28;20028;-67
2023/03/16 09:27:35;;;;;;;10.15;5.43;;;8.40;99.90;;;;;;5045229;28;20075;-67
2023/03/16 09:30:02;;;;;;;10.80;5.28;;;8.50;99.90;;;;;;5044649;28;20033;-66
2023/03/16 09:32:29;;;;;;;12.57;5.30;;;8.60;99.90;;;;;;5049513;28;20051;-67
2023/03/16 09:34:55;;;;;;;12.85;5.10;;;8.40;99.90;;;;;;5048955;28;20025;-67
2023/03/16 09:37:21;;;;;;;9.05;4.63;;;8.30;99.90;;;;;;5048431;28;20040;-66
2023/03/16 09:39:47;;;;;;;14.18;5.45;;;8.30;99.90;;;;;;5056601;23;20077;-67
2023/03/16 09:42:37;;;;;;;8.50;5.10;;;8.60;99.90;;;;;;5040365;28;20394;-67
2023/03/16 09:45:13;;;;;;;9.00;5.03;;;9.00;99.90;;;;;;5039049;28;20029;-67
2023/03/16 09:47:40;;;;;;;9.27;4.70;;;9.20;99.90;;;;;;5047534;28;20383;-67
2023/03/16 09:50:11;;;;;;;10.18;4.65;;;9.60;99.90;;;;;;5038602;28;20490;-67
2023/03/16 09:53:01;;;;;;;8.00;5.50;;;10.00;99.90;;;;;;5041941;28;20112;-69
2023/03/16 09:55:30;;;;;;;7.88;4.50;;;10.80;99.10;;;;;;5045778;28;20088;-68
2023/03/16 09:57:57;;;;;;;14.25;5.22;;;11.00;99.50;;;;;;5037358;28;20017;-68
2023/03/16 10:00:26;;;;;;;9.02;4.40;;;11.30;98.40;;;;;;5026556;28;20049;-68
2023/03/16 10:03:02;;;;;;;6.32;4.18;;;11.30;97.50;;;;;;5045830;28;20037;-68
2023/03/16 10:05:27;;;;;;;9.30;4.90;;;11.20;97.80;;;;;;5044266;28;20536;-68
2023/03/16 10:08:07;;;;;;;10.75;4.53;;;11.00;97.20;;;;;;5042833;28;20056;-68
2023/03/16 10:10:46;;;;;;;5.82;4.30;;;10.80;97.60;;;;;;5050468;28;20032;-67
2023/03/16 10:13:31;;;;;;;9.23;4.38;;;10.60;97.90;;;;;;5064504;28;20029;-68
2023/03/16 10:16:01;;;;;;;6.97;4.15;;;10.70;98.40;;;;;;5051251;28;20049;-68
2023/03/16 10:18:36;;;;;;;8.50;4.63;;;10.80;98.00;;;;;;5043900;28;20024;-68
2023/03/16 10:21:02;;;;;;;6.63;3.63;;;10.60;98.10;;;;;;5045928;28;20013;-68
2023/03/16 10:23:33;;;;;;;20.48;4.88;;;10.70;97.80;;;;;;5051680;28;20489;-68
2023/03/16 10:25:58;;;;;;;6.82;3.78;;;10.60;97.80;;;;;;5062864;28;20061;-68
2023/03/16 10:28:28;;;;;;;8.82;4.22;;;10.40;97.80;;;;;;5047923;28;20056;-68
2023/03/16 10:30:58;;;;;;;9.10;4.57;;;10.40;98.30;;;;;;5041880;28;20052;-67
2023/03/16 10:33:35;;;;;;;9.35;4.50;;;10.10;98.00;;;;;;5043169;28;20025;-68
2023/03/16 10:36:25;;;;;;;6.93;3.78;;;10.10;98.50;;;;;;5046527;28;20021;-68
2023/03/16 10:38:58;;;;;;;6.65;4.28;;;9.90;98.50;;;;;;5035167;28;20036;-67
2023/03/16 10:41:28;;;;;;;8.63;5.05;;;9.70;99.30;;;;;;5041007;28;21026;-68
2023/03/16 10:43:57;;;;;;;6.72;3.67;;;9.60;99.40;;;;;;5046873;28;20025;-68
2023/03/16 10:46:26;;;;;;;7.32;3.88;;;9.60;99.30;;;;;;5042749;28;20044;-67
2023/03/16 10:49:01;;;;;;;10.43;4.10;;;9.60;99.90;;;;;;5040502;28;20037;-69
2023/03/16 10:51:36;;;;;;;4.53;2.90;;;9.80;99.90;;;;;;5041608;28;20037;-68
2023/03/16 10:54:13;;;;;;;6.95;3.15;;;10.20;99.80;;;;;;5048354;28;20043;-68
2023/03/16 10:56:39;;;;;;;6.13;2.95;;;10.40;98.20;;;;;;5043842;28;20040;-68
2023/03/16 10:59:15;;;;;;;4.53;3.03;;;10.30;98.70;;;;;;5030240;28;21577;-67
2023/03/16 11:01:44;;;;;;;5.70;3.33;;;10.50;98.90;;;;;;5045413;28;20509;-69
2023/03/16 11:04:14;;;;;;;4.25;2.70;;;10.50;98.60;;;;;;5045095;28;20028;-67
2023/03/16 11:06:48;;;;;;;7.63;3.13;;;10.60;98.60;;;;;;5042856;28;20497;-68
2023/03/16 11:09:19;;;;;;;8.23;3.35;;;10.70;98.30;;;;;;5042333;28;20116;-68
2023/03/16 11:11:49;;;;;;;6.28;2.75;;;10.90;98.80;;;;;;5046640;28;20026;-68
2023/03/16 11:14:22;;;;;;;5.32;2.72;;;11.10;98.00;;;;;;5047276;28;20035;-68
2023/03/16 11:17:08;;;;;;;5.32;2.88;;;11.10;98.00;;;;;;5049704;28;20017;-69
2023/03/16 11:19:46;;;;;;;6.70;2.72;;;11.00;98.00;;;;;;5050783;28;20033;-68
2023/03/16 11:22:16;;;;;;;4.95;3.45;;;11.20;97.90;;;;;;5041802;28;20040;-68
2023/03/16 11:25:06;;;;;;;4.45;2.58;;;11.40;97.90;;;;;;5032372;28;20410;-67
2023/03/16 11:27:34;;;;;;;5.47;3.35;;;11.70;96.60;;;;;;5047008;28;20158;-68
2023/03/16 11:30:05;;;;;;;5.53;3.13;;;11.70;96.60;;;;;;5046675;28;20163;-67
2023/03/16 11:32:45;;;;;;;3.95;2.50;;;11.60;96.70;;;;;;5043029;28;20024;-67
2023/03/16 11:35:18;;;;;;;7.75;3.10;;;11.60;96.80;;;;;;5043680;28;20021;-68
2023/03/16 11:38:25;;;;;;;8.73;2.78;;;11.60;97.20;;;;;;5044404;28;20703;-66
2023/03/16 11:41:04;;;;;;;4.22;2.97;;;11.80;96.90;;;;;;5038889;28;20410;-68
2023/03/16 11:43:36;;;;;;;5.18;2.63;;;11.80;96.60;;;;;;5038560;28;20032;-68
2023/03/16 11:46:10;;;;;;;8.85;4.22;;;11.30;96.10;;;;;;5048318;28;21617;-67
2023/03/16 11:48:52;;;;;;;4.13;2.72;;;11.10;96.70;;;;;;5040355;28;20120;-69
2023/03/16 11:51:33;;;;;;;5.32;2.67;;;11.20;97.50;;;;;;5040703;28;20033;-68
2023/03/16 11:54:24;;;;;;;6.70;3.60;;;10.90;97.20;;;;;;5041712;28;20025;-68
2023/03/16 11:57:05;;;;;;;6.45;2.85;;;10.80;97.30;;;;;;5042790;28;20475;-68
2023/03/16 12:00:09;;;;;;;6.43;3.22;;;10.70;97.80;;;;;;5030246;28;20482;-67
2023/03/16 12:02:47;;;;;;;3.53;2.53;;;10.50;99.00;;;;;;5038056;28;20120;-68
2023/03/16 12:05:15;;;;;;;5.65;2.47;;;10.50;98.60;;;;;;5047109;28;20017;-68
2023/03/16 12:08:06;;;;;;;8.00;2.60;;;10.50;98.50;;;;;;5042218;28;21246;-69
2023/03/16 12:10:49;;;;;;;5.05;2.13;;;10.50;98.40;;;;;;5040097;28;20028;-67
2023/03/16 12:13:29;;;;;;;4.03;2.40;;;10.50;98.70;;;;;;5046409;28;20147;-67
2023/03/16 12:16:11;;;;;;;7.60;2.80;;;10.60;98.60;;;;;;5048084;28;20409;-67
2023/03/16 12:18:52;;;;;;;5.25;2.38;;;10.70;99.20;;;;;;5042403;28;20041;-68
2023/03/16 12:21:27;;;;;;;6.78;2.25;;;10.70;98.40;;;;;;5049012;28;20930;-67
2023/03/16 12:23:57;;;;;;;5.28;2.63;;;10.80;98.20;;;;;;5047205;28;20083;-68
2023/03/16 12:26:29;;;;;;;5.18;2.20;;;10.80;97.70;;;;;;5050138;28;20021;-66
2023/03/16 12:28:58;;;;;;;6.13;2.28;;;10.80;97.30;;;;;;5050745;28;20021;-67
2023/03/16 12:31:40;;;;;;;4.38;2.20;;;10.60;98.50;;;;;;5048248;28;20378;-67
2023/03/16 12:34:12;;;;;;;2.60;1.77;;;10.80;99.10;;;;;;5047790;28;20382;-68
2023/03/16 12:37:13;;;;;;;5.63;2.47;;;10.90;98.60;;;;;;5046962;28;20665;-67
2023/03/16 12:39:44;;;;;;;4.82;2.72;;;11.00;98.00;;;;;;5041891;28;20078;-68
2023/03/16 12:42:19;;;;;;;2.60;2.00;;;11.20;98.40;;;;;;5050874;28;20025;-68
2023/03/16 12:45:11;;;;;;;2.33;1.95;;;11.30;97.60;;;;;;5049045;28;20020;-68
2023/03/16 12:48:03;;;;;;;3.75;1.95;;;11.40;97.90;;;;;;5047781;28;20035;-68
2023/03/16 12:50:29;;;;;;;5.43;2.20;;;11.50;97.50;;;;;;5049798;28;20032;-69
2023/03/16 12:52:55;;;;;;;4.63;1.70;;;11.60;97.30;;;;;;5049494;28;20029;-68
2023/03/16 12:55:33;;;;;;;7.63;2.15;;;11.60;97.00;;;;;;5049442;28;20040;-67
2023/03/16 12:58:05;;;;;;;2.78;2.08;;;11.70;96.50;;;;;;5049030;28;20032;-67
2023/03/16 13:00:55;;;;;;;4.20;1.92;;;11.80;96.20;;;;;;5033650;28;20045;-68
2023/03/16 13:03:22;;;;;;;7.28;2.20;;;11.80;96.20;;;;;;5058946;28;20037;-68